Pagina principale
METAR-TAF:

METAR-TAF

Aeroporti :

Aeroporto di Bari-Palese

Bari, Italia

latitudine: 41-08N, longitudine: 016-47E, altezza: 34 m

Osservazione

Il bollettino è stato emesso 18 minuti fa, alle 02:50 UTC
Vento 5 kt da sud/sud-ovest
Temperature 2°C
Umidità 87%
Pressione 993 hPa
Visibilità 10 km o più
nessuna nube inferiore a 1500 m e nessun cumulonembo

METAR: LIBD 240250Z 20005KT CAVOK 02/00 Q0993

Ora: 04:08 (03:08 UTC)

Previsione

Il bollettino è stato emesso 4 ore e 8 minuti fa, alle 23:00 UTC
Previsione valida dal 24 alle 00 UTC al 24 alle 24 UTC
Vento 5 kt da direzioni variabili
Visibilità: 8000 m
Nubi sparse ad un'altezza di 3000 ft
Temporaneamente
dal 24 alle 14 UTC al 24 alle 24 UTC
rovesci di pioggia

TAF: LIBD 232300Z 2400/2424 VRB05KT 8000 SCT030 TEMPO 2414/2424 SHRA

Osservazioni e previsioni meteorologiche di più di 4000 aeroporti (messaggi METAR e TAF).

Le stazioni disponibili sono rappresentate dai dischi gialli e rossi sulla carta.

Puntare il mouse per vedere il nome della stazione.

Clicca sopra per visualizzare le osservazioni e previsioni meteorologiche.

Per cambiare la mappa : fare clic sui pulsanti verdi con una croce nera per ingrandire, il pulsante verde con un trattino per diminuire, o sulla freccia verde per le mappe adiacenti.


METAR-TAF: